createdAt,value
2017-04-17T00:00:04.866Z,7.82
2017-04-17T00:01:02.952Z,7.20
2017-04-17T00:02:00.342Z,7.92
2017-04-17T00:02:57.680Z,7.92
2017-04-17T00:03:55.014Z,7.17
2017-04-17T00:04:52.326Z,6.82
2017-04-17T00:05:49.801Z,7.22
2017-04-17T00:06:47.217Z,6.70
2017-04-17T00:07:44.841Z,7.77
2017-04-17T00:08:42.151Z,7.47
2017-04-17T00:09:39.437Z,7.62
2017-04-17T00:10:36.732Z,7.67
2017-04-17T00:11:34.765Z,7.08
2017-04-17T00:12:32.224Z,8.05
2017-04-17T00:13:29.542Z,7.67
2017-04-17T00:14:26.844Z,7.08
2017-04-17T00:15:24.967Z,8.10
2017-04-17T00:16:23.202Z,6.92
2017-04-17T00:17:20.596Z,8.12
2017-04-17T00:18:17.916Z,6.92
2017-04-17T00:19:15.233Z,7.48
2017-04-17T00:20:13.185Z,7.25
2017-04-17T00:21:10.585Z,7.53
2017-04-17T00:22:07.881Z,7.40
2017-04-17T00:23:06.024Z,7.38
2017-04-17T00:24:09.628Z,7.63
2017-04-17T00:25:07.091Z,7.40
2017-04-17T00:26:04.584Z,6.83
2017-04-17T00:27:01.902Z,7.48
2017-04-17T00:27:59.249Z,7.97
2017-04-17T00:28:56.630Z,7.88
2017-04-17T00:29:53.948Z,8.50
2017-04-17T00:30:51.259Z,7.12
2017-04-17T00:31:48.715Z,7.47
2017-04-17T00:32:46.953Z,8.40
2017-04-17T00:33:44.350Z,7.55
2017-04-17T00:34:41.702Z,7.75
2017-04-17T00:35:39.033Z,7.57
2017-04-17T00:36:36.352Z,7.40
2017-04-17T00:37:33.658Z,7.45
2017-04-17T00:38:31.679Z,6.80
2017-04-17T00:39:29.010Z,7.73
2017-04-17T00:40:26.341Z,6.83
2017-04-17T00:41:24.259Z,7.50
2017-04-17T00:42:22.354Z,7.85
2017-04-17T00:43:20.011Z,8.15
2017-04-17T00:44:17.419Z,7.83
2017-04-17T00:45:15.565Z,8.43
2017-04-17T00:46:12.882Z,8.65
2017-04-17T00:47:10.183Z,8.03
2017-04-17T00:48:07.503Z,8.63
2017-04-17T00:49:04.905Z,9.68
2017-04-17T00:50:02.460Z,8.07
2017-04-17T00:50:59.773Z,10.15
2017-04-17T00:51:57.090Z,9.83
2017-04-17T00:52:54.408Z,9.22
2017-04-17T00:53:51.804Z,8.67
2017-04-17T00:54:49.263Z,8.93
2017-04-17T00:55:46.590Z,9.38
2017-04-17T00:56:44.568Z,9.32
2017-04-17T00:57:41.969Z,9.92
2017-04-17T00:58:39.324Z,8.28
2017-04-17T00:59:36.655Z,9.40
2017-04-17T01:00:34.068Z,10.32
2017-04-17T01:01:31.374Z,9.80
2017-04-17T01:02:29.581Z,9.15
2017-04-17T01:03:27.000Z,10.13
2017-04-17T01:04:24.301Z,9.18
2017-04-17T01:05:21.716Z,8.87
2017-04-17T01:06:19.010Z,8.72
2017-04-17T01:07:16.322Z,9.63
2017-04-17T01:08:13.639Z,9.70
2017-04-17T01:09:11.429Z,9.55
2017-04-17T01:10:08.845Z,10.15
2017-04-17T01:11:07.567Z,9.63
2017-04-17T01:12:05.003Z,8.27
2017-04-17T01:13:02.322Z,10.17
2017-04-17T01:13:59.630Z,9.25
2017-04-17T01:14:56.914Z,8.87
2017-04-17T01:15:55.145Z,9.77
2017-04-17T01:16:52.615Z,9.72
2017-04-17T01:17:50.606Z,10.65
2017-04-17T01:18:47.912Z,10.95
2017-04-17T01:19:45.246Z,10.23
2017-04-17T01:20:42.761Z,8.82
2017-04-17T01:21:41.665Z,10.03
2017-04-17T01:22:39.036Z,10.58
2017-04-17T01:23:36.355Z,10.25
2017-04-17T01:24:34.399Z,11.33
2017-04-17T01:25:31.727Z,11.65
2017-04-17T01:26:29.657Z,9.92
2017-04-17T01:27:27.067Z,10.23
2017-04-17T01:28:24.536Z,10.03
2017-04-17T01:29:22.126Z,10.12
2017-04-17T01:30:19.470Z,10.77
2017-04-17T01:31:16.771Z,10.45
2017-04-17T01:32:14.696Z,11.05
2017-04-17T01:33:12.726Z,9.93
2017-04-17T01:34:10.083Z,10.25
2017-04-17T01:35:08.150Z,10.38
2017-04-17T01:36:05.502Z,10.57
2017-04-17T01:37:02.975Z,10.65
2017-04-17T01:38:00.278Z,9.93
2017-04-17T01:38:57.676Z,9.95
2017-04-17T01:39:54.966Z,10.88
2017-04-17T01:40:53.098Z,11.08
2017-04-17T01:41:51.300Z,10.48
2017-04-17T01:42:48.605Z,10.87
2017-04-17T01:43:46.017Z,9.97
2017-04-17T01:44:43.472Z,10.97
2017-04-17T01:45:40.770Z,12.47
2017-04-17T01:46:38.804Z,11.72
2017-04-17T01:47:36.097Z,9.68
2017-04-17T01:48:33.397Z,11.23
2017-04-17T01:49:31.471Z,10.43
2017-04-17T01:50:29.715Z,10.43
2017-04-17T01:51:27.867Z,9.58
2017-04-17T01:52:25.178Z,10.10
2017-04-17T01:53:23.218Z,8.75
2017-04-17T01:54:20.531Z,8.63
2017-04-17T01:55:17.846Z,10.62
2017-04-17T01:56:15.259Z,10.42
2017-04-17T01:57:13.523Z,11.02
2017-04-17T01:58:11.686Z,11.47
2017-04-17T01:59:10.810Z,11.15
2017-04-17T02:00:08.218Z,10.70
2017-04-17T02:01:05.549Z,10.67
2017-04-17T02:02:03.572Z,10.28
2017-04-17T02:03:00.954Z,11.82
2017-04-17T02:03:58.252Z,11.45
2017-04-17T02:04:56.322Z,10.93
2017-04-17T02:05:53.710Z,10.48
2017-04-17T02:06:51.198Z,8.92
2017-04-17T02:07:48.511Z,10.77
2017-04-17T02:08:45.815Z,7.82
2017-04-17T02:09:43.118Z,7.28
2017-04-17T02:10:41.302Z,8.28
2017-04-17T02:11:38.677Z,10.27
2017-04-17T02:12:36.013Z,8.10
2017-04-17T02:13:33.286Z,8.97
2017-04-17T02:14:30.581Z,7.80
2017-04-17T02:15:28.162Z,8.05
2017-04-17T02:16:25.446Z,7.90
2017-04-17T02:17:22.791Z,7.48
2017-04-17T02:18:20.153Z,7.42
2017-04-17T02:19:18.262Z,6.08
2017-04-17T02:20:15.601Z,7.08
2017-04-17T02:21:13.039Z,6.15
2017-04-17T02:22:10.325Z,6.97
2017-04-17T02:23:07.625Z,6.07
2017-04-17T02:24:05.681Z,6.25
2017-04-17T02:25:02.989Z,6.23
2017-04-17T02:26:01.031Z,4.95
2017-04-17T02:26:58.477Z,5.80
2017-04-17T02:27:56.533Z,6.05
2017-04-17T02:28:53.842Z,6.13
2017-04-17T02:29:51.696Z,5.65
2017-04-17T02:30:48.992Z,5.45
2017-04-17T02:31:46.341Z,5.78
2017-04-17T02:32:44.549Z,5.30
2017-04-17T02:33:41.822Z,5.68
2017-04-17T02:34:39.976Z,5.80
2017-04-17T02:35:37.312Z,4.83
2017-04-17T02:36:34.622Z,4.53
2017-04-17T02:37:31.966Z,5.62
2017-04-17T02:38:30.086Z,5.18
2017-04-17T02:39:27.407Z,4.88
2017-04-17T02:40:24.726Z,5.32
2017-04-17T02:41:22.766Z,5.83
2017-04-17T02:42:20.820Z,5.15
2017-04-17T02:43:18.204Z,5.43
2017-04-17T02:44:15.557Z,5.63
2017-04-17T02:45:12.889Z,5.23
2017-04-17T02:46:10.189Z,5.43
2017-04-17T02:47:07.482Z,4.28
2017-04-17T02:48:04.951Z,5.27
2017-04-17T02:49:03.109Z,3.88
2017-04-17T02:50:00.501Z,5.53
2017-04-17T02:50:58.531Z,5.07
2017-04-17T02:51:55.834Z,5.45
2017-04-17T02:52:53.133Z,4.88
2017-04-17T02:53:50.491Z,5.45
2017-04-17T02:54:47.829Z,6.08
2017-04-17T02:55:45.155Z,5.98
2017-04-17T02:56:42.460Z,4.78
2017-04-17T02:57:40.506Z,5.77
2017-04-17T02:58:38.011Z,6.02
2017-04-17T02:59:36.061Z,5.22
2017-04-17T03:00:33.379Z,4.92
2017-04-17T03:01:31.300Z,4.92
2017-04-17T03:02:28.601Z,5.42
2017-04-17T03:03:26.038Z,5.93
2017-04-17T03:04:24.338Z,4.87
2017-04-17T03:05:21.662Z,4.82
2017-04-17T03:06:19.029Z,5.33
2017-04-17T03:07:16.350Z,4.90
2017-04-17T03:08:13.814Z,4.70
2017-04-17T03:09:11.768Z,5.03
2017-04-17T03:10:09.266Z,5.35
2017-04-17T03:11:06.724Z,4.82
2017-04-17T03:12:04.238Z,5.58
2017-04-17T03:13:01.718Z,4.97
2017-04-17T03:13:59.043Z,5.13
2017-04-17T03:14:57.133Z,5.20
2017-04-17T03:15:54.558Z,5.48
2017-04-17T03:16:51.857Z,4.50
2017-04-17T03:17:49.315Z,5.22
2017-04-17T03:18:46.626Z,5.85
2017-04-17T03:19:44.016Z,5.50
2017-04-17T03:20:41.298Z,5.53
2017-04-17T03:21:38.621Z,5.12
2017-04-17T03:22:36.655Z,5.72
2017-04-17T03:23:34.879Z,5.45
2017-04-17T03:24:32.166Z,5.48
2017-04-17T03:25:29.561Z,5.60
2017-04-17T03:26:26.966Z,7.07
2017-04-17T03:37:04.411Z,4.43
2017-04-17T03:38:01.755Z,6.27
2017-04-17T03:38:59.053Z,6.75
2017-04-17T03:39:57.094Z,5.83
2017-04-17T03:40:55.131Z,6.48
2017-04-17T03:41:53.093Z,7.40
2017-04-17T03:42:51.157Z,7.22
2017-04-17T03:43:48.458Z,6.43
2017-04-17T03:44:45.874Z,6.65
2017-04-17T03:45:43.963Z,7.07
2017-04-17T03:46:41.430Z,6.53
2017-04-17T03:47:38.722Z,6.23
2017-04-17T03:48:36.067Z,6.65
2017-04-17T03:49:33.366Z,6.35
2017-04-17T03:50:30.675Z,6.30
2017-04-17T03:51:28.053Z,6.38
2017-04-17T03:52:25.359Z,5.58
2017-04-17T03:53:22.660Z,5.43
2017-04-17T03:54:19.968Z,4.70
2017-04-17T03:55:17.323Z,6.63
2017-04-17T03:56:14.622Z,6.07
2017-04-17T03:57:12.009Z,5.67
2017-04-17T03:58:09.302Z,5.60
2017-04-17T03:59:06.606Z,5.85
2017-04-17T04:00:03.925Z,5.65
2017-04-17T04:01:01.949Z,6.45
2017-04-17T04:01:59.307Z,6.15
2017-04-17T04:02:56.673Z,5.77
2017-04-17T04:03:54.041Z,5.57
2017-04-17T04:04:52.141Z,7.87
2017-04-17T04:05:49.470Z,5.85
2017-04-17T04:06:46.752Z,6.67
2017-04-17T04:07:44.862Z,7.18
2017-04-17T04:08:42.232Z,6.77
2017-04-17T04:09:39.533Z,6.67
2017-04-17T04:10:36.820Z,7.20
2017-04-17T04:11:34.154Z,6.63
2017-04-17T04:12:32.165Z,7.80
2017-04-17T04:13:29.441Z,7.10
2017-04-17T04:14:26.769Z,6.78
2017-04-17T04:15:24.074Z,6.92
2017-04-17T04:16:21.372Z,7.55
2017-04-17T04:17:18.762Z,7.73
2017-04-17T04:18:16.062Z,7.43
2017-04-17T04:19:13.343Z,6.22
2017-04-17T04:20:10.634Z,7.98
2017-04-17T04:21:07.940Z,7.30
2017-04-17T04:22:06.040Z,6.78
2017-04-17T04:23:03.348Z,6.33
2017-04-17T04:24:00.696Z,5.33
2017-04-17T04:24:57.998Z,6.23
2017-04-17T04:25:56.032Z,5.78
2017-04-17T04:26:53.369Z,6.63
2017-04-17T04:27:51.481Z,6.58
2017-04-17T04:28:48.766Z,5.72
2017-04-17T04:29:46.059Z,6.43
2017-04-17T04:30:43.376Z,5.87
2017-04-17T04:31:40.660Z,6.03
2017-04-17T04:32:38.764Z,6.10
2017-04-17T04:33:36.070Z,5.18
2017-04-17T04:34:34.274Z,5.77
2017-04-17T04:35:31.581Z,6.52
2017-04-17T04:36:29.621Z,5.40
2017-04-17T04:37:26.986Z,5.55
2017-04-17T04:38:25.126Z,5.77
2017-04-17T04:39:22.433Z,5.87
2017-04-17T04:40:19.741Z,6.50
2017-04-17T04:41:17.047Z,6.40
2017-04-17T04:42:14.377Z,5.40
2017-04-17T04:43:11.748Z,6.05
2017-04-17T04:44:09.129Z,6.40
2017-04-17T04:45:06.497Z,5.77
2017-04-17T04:46:03.789Z,6.00
2017-04-17T04:47:01.094Z,6.97
2017-04-17T04:47:58.389Z,5.80
2017-04-17T04:48:55.723Z,5.68
2017-04-17T04:49:53.083Z,6.53
2017-04-17T04:50:50.389Z,5.77
2017-04-17T04:51:47.737Z,5.78
2017-04-17T04:52:45.058Z,6.35
2017-04-17T04:53:42.401Z,5.78
2017-04-17T04:54:39.780Z,6.08
2017-04-17T04:55:37.837Z,5.00
2017-04-17T04:56:35.194Z,6.12
2017-04-17T04:57:32.488Z,4.98
2017-04-17T04:58:29.793Z,5.88
2017-04-17T04:59:27.835Z,5.15
2017-04-17T05:00:25.230Z,5.72
2017-04-17T05:01:22.540Z,5.38
2017-04-17T05:02:19.834Z,4.75
2017-04-17T05:03:17.204Z,5.62
2017-04-17T05:04:15.370Z,5.25
2017-04-17T05:05:13.282Z,5.98
2017-04-17T05:06:10.607Z,4.67
2017-04-17T05:07:07.993Z,5.95
2017-04-17T05:08:05.289Z,5.37
2017-04-17T05:09:02.695Z,4.82
2017-04-17T05:10:00.098Z,5.80
2017-04-17T05:10:57.400Z,5.57
2017-04-17T05:11:54.675Z,5.58
2017-04-17T05:12:52.011Z,6.67
2017-04-17T05:13:49.321Z,6.50
2017-04-17T05:14:46.635Z,6.20
2017-04-17T05:15:44.074Z,5.83
2017-04-17T05:16:42.105Z,5.33
2017-04-17T05:17:39.401Z,6.35
2017-04-17T05:18:37.441Z,5.28
2017-04-17T05:19:35.134Z,5.90
2017-04-17T05:20:32.449Z,4.98
2017-04-17T05:21:29.891Z,6.22
2017-04-17T05:22:27.185Z,5.60
2017-04-17T05:23:24.477Z,5.75
2017-04-17T05:24:21.766Z,5.78
2017-04-17T05:25:19.065Z,6.88
2017-04-17T05:26:17.203Z,6.30
2017-04-17T05:27:15.523Z,5.98
2017-04-17T05:28:12.825Z,6.75
2017-04-17T05:29:10.138Z,7.30
2017-04-17T05:30:08.186Z,6.77
2017-04-17T05:31:05.670Z,6.40
2017-04-17T05:32:03.228Z,6.62
2017-04-17T05:33:00.541Z,6.18
2017-04-17T05:33:57.852Z,6.60
2017-04-17T05:34:55.185Z,6.72
2017-04-17T05:35:52.497Z,6.58
2017-04-17T05:36:49.928Z,6.90
2017-04-17T05:37:47.227Z,6.83
2017-04-17T05:38:44.541Z,6.27
2017-04-17T05:39:41.833Z,7.48
2017-04-17T05:40:39.125Z,6.98
2017-04-17T05:41:36.417Z,7.57
2017-04-17T05:42:34.190Z,5.55
2017-04-17T05:43:31.510Z,7.70
2017-04-17T05:44:29.607Z,7.22
2017-04-17T05:45:27.693Z,6.52
2017-04-17T05:46:25.754Z,7.27
2017-04-17T05:47:23.135Z,7.07
2017-04-17T05:48:20.445Z,6.12
2017-04-17T05:49:17.970Z,6.23
2017-04-17T05:50:15.310Z,6.02
2017-04-17T05:51:12.641Z,7.43
2017-04-17T05:52:10.031Z,6.33
2017-04-17T05:53:07.478Z,6.33
2017-04-17T05:54:04.773Z,6.88
2017-04-17T05:55:02.078Z,7.00
2017-04-17T05:55:59.380Z,5.78
2017-04-17T05:56:56.727Z,7.20
2017-04-17T05:57:54.039Z,7.68
2017-04-17T05:58:51.398Z,6.63
2017-04-17T05:59:48.781Z,6.30
2017-04-17T06:00:46.081Z,7.10
2017-04-17T06:01:43.398Z,5.73
2017-04-17T06:02:40.773Z,6.20
2017-04-17T06:03:38.163Z,7.12
2017-04-17T06:04:36.223Z,5.88
2017-04-17T06:05:33.550Z,6.25
2017-04-17T06:06:33.237Z,6.08
2017-04-17T06:07:32.274Z,5.25
2017-04-17T06:08:33.140Z,5.47
2017-04-17T06:09:32.465Z,5.00
2017-04-17T06:10:31.498Z,5.70
2017-04-17T06:11:31.449Z,6.45
2017-04-17T06:12:30.393Z,6.63
2017-04-17T06:13:29.388Z,5.58
2017-04-17T06:14:28.722Z,4.82
2017-04-17T06:15:27.751Z,4.33
2017-04-17T06:16:26.731Z,4.52
2017-04-17T06:17:25.940Z,4.40
2017-04-17T06:18:25.102Z,3.83
2017-04-17T06:19:24.894Z,4.78
2017-04-17T06:20:24.686Z,4.10
2017-04-17T06:21:24.737Z,3.70
2017-04-17T06:22:23.792Z,3.68
2017-04-17T06:23:22.782Z,4.75
2017-04-17T06:24:22.285Z,3.68
2017-04-17T06:25:21.998Z,3.95
2017-04-17T06:26:20.999Z,3.95
2017-04-17T06:27:20.244Z,2.58
2017-04-17T06:28:19.526Z,3.52
2017-04-17T06:38:57.620Z,3.50
2017-04-17T06:39:54.997Z,3.10
2017-04-17T06:40:52.352Z,3.58
2017-04-17T06:41:50.297Z,4.18
2017-04-17T06:42:47.617Z,3.03
2017-04-17T06:43:45.983Z,3.45
2017-04-17T06:44:43.334Z,2.88
2017-04-17T06:45:40.674Z,3.08
2017-04-17T06:46:38.009Z,3.83
2017-04-17T06:47:35.317Z,3.70
2017-04-17T06:48:32.627Z,3.05
2017-04-17T06:49:30.056Z,3.08
2017-04-17T07:02:01.280Z,3.48
2017-04-17T07:03:33.916Z,2.80
2017-04-17T07:04:31.340Z,3.70
2017-04-17T07:05:28.746Z,3.25
2017-04-17T07:06:26.657Z,3.92
2017-04-17T07:07:24.163Z,3.92
2017-04-17T07:08:21.652Z,4.53
2017-04-17T07:09:19.786Z,3.93
2017-04-17T07:10:17.147Z,3.82
2017-04-17T07:11:16.057Z,3.45
2017-04-17T07:12:14.241Z,3.45
2017-04-17T07:13:12.520Z,3.95
2017-04-17T07:14:10.689Z,4.48
2017-04-17T07:15:08.717Z,3.90
2017-04-17T07:16:06.105Z,5.03
2017-04-17T07:17:03.450Z,4.10
2017-04-17T07:18:00.820Z,3.80
2017-04-17T07:18:58.330Z,4.73
2017-04-17T07:19:55.716Z,3.78
2017-04-17T07:20:53.246Z,3.63
2017-04-17T07:21:50.602Z,3.70
2017-04-17T07:22:47.995Z,3.75
2017-04-17T07:23:45.432Z,3.23
2017-04-17T07:24:43.814Z,4.30
2017-04-17T07:25:41.927Z,4.27
2017-04-17T07:26:39.274Z,4.43
2017-04-17T07:27:37.658Z,4.30
2017-04-17T07:28:35.914Z,4.07
2017-04-17T07:29:33.270Z,3.40
2017-04-17T07:30:30.707Z,4.10
2017-04-17T07:31:28.171Z,4.15
2017-04-17T07:32:25.519Z,4.35
2017-04-17T07:33:22.967Z,4.15
2017-04-17T07:34:20.323Z,4.43
2017-04-17T07:35:18.268Z,5.50
2017-04-17T07:36:15.615Z,4.50
2017-04-17T07:37:13.539Z,4.07
2017-04-17T07:38:10.862Z,4.02
2017-04-17T07:39:08.274Z,4.22
2017-04-17T07:40:05.670Z,4.00
2017-04-17T07:41:03.045Z,4.45
2017-04-17T07:42:00.457Z,3.55
2017-04-17T07:42:57.822Z,4.88
2017-04-17T07:43:56.874Z,4.03
2017-04-17T07:44:54.228Z,3.72
2017-04-17T07:45:51.661Z,3.50
2017-04-17T07:46:49.097Z,4.37
2017-04-17T07:47:47.243Z,4.32
2017-04-17T07:48:44.644Z,3.22
2017-04-17T07:49:42.058Z,4.30
2017-04-17T07:50:39.448Z,3.98
2017-04-17T07:51:36.765Z,3.63
2017-04-17T07:52:35.606Z,4.20
2017-04-17T07:53:33.050Z,4.15
2017-04-17T07:54:31.825Z,3.85
2017-04-17T07:55:29.846Z,4.10
2017-04-17T07:56:27.237Z,3.82
2017-04-17T07:57:24.634Z,4.43
2017-04-17T07:58:22.010Z,2.97
2017-04-17T07:59:19.390Z,4.02
2017-04-17T08:00:17.798Z,3.37
2017-04-17T08:01:15.972Z,4.12
2017-04-17T08:02:14.211Z,4.02
2017-04-17T08:03:11.586Z,3.73
2017-04-17T08:04:09.055Z,4.45
2017-04-17T08:05:06.622Z,3.37
2017-04-17T08:06:04.898Z,3.07
2017-04-17T08:07:02.253Z,3.75
2017-04-17T08:08:00.378Z,3.80
2017-04-17T08:08:57.750Z,4.60
2017-04-17T08:09:55.974Z,3.35
2017-04-17T08:10:54.310Z,4.03
2017-04-17T08:11:52.487Z,3.73
2017-04-17T08:12:50.282Z,3.70
2017-04-17T08:13:47.934Z,2.93
2017-04-17T08:14:45.681Z,3.60
2017-04-17T08:15:43.480Z,2.50
2017-04-17T08:16:41.407Z,2.73
2017-04-17T08:17:40.113Z,3.08
2017-04-17T08:18:37.838Z,3.33
2017-04-17T08:19:35.580Z,3.85
2017-04-17T08:20:33.234Z,3.32
2017-04-17T08:21:31.785Z,2.92
2017-04-17T08:22:30.607Z,3.35
2017-04-17T08:23:28.468Z,3.25
2017-04-17T08:24:26.219Z,3.05
2017-04-17T08:25:24.587Z,2.75
2017-04-17T08:26:22.363Z,2.85
2017-04-17T08:27:20.822Z,2.78
2017-04-17T08:28:18.723Z,3.70
2017-04-17T08:29:16.478Z,2.55
2017-04-17T08:30:14.348Z,2.37
2017-04-17T08:31:12.408Z,3.12
2017-04-17T08:32:10.428Z,2.43
2017-04-17T08:33:08.286Z,3.32
2017-04-17T08:34:05.665Z,2.88
2017-04-17T08:35:05.592Z,2.37
2017-04-17T08:36:03.411Z,2.62
2017-04-17T08:37:00.867Z,2.65
2017-04-17T08:37:58.252Z,2.03
2017-04-17T08:38:55.625Z,2.67
2017-04-17T08:39:52.979Z,2.85
2017-04-17T08:40:51.205Z,2.08
2017-04-17T08:41:49.400Z,2.20
2017-04-17T08:42:46.990Z,2.60
2017-04-17T08:43:45.002Z,2.62
2017-04-17T08:44:43.086Z,2.23
2017-04-17T08:45:40.809Z,3.00
2017-04-17T08:46:38.777Z,2.12
2017-04-17T08:47:37.630Z,2.27
2017-04-17T08:48:36.096Z,2.38
2017-04-17T08:49:35.299Z,2.70
2017-04-17T08:50:33.610Z,2.03
2017-04-17T08:51:31.535Z,3.20
2017-04-17T08:52:29.460Z,2.37
2017-04-17T08:53:28.329Z,2.70
2017-04-17T08:54:26.466Z,2.17
2017-04-17T08:55:24.580Z,2.40
2017-04-17T08:56:22.001Z,2.68
2017-04-17T08:57:19.487Z,2.60
2017-04-17T08:58:16.959Z,2.53
2017-04-17T08:59:15.665Z,2.45
2017-04-17T09:00:13.114Z,2.83
2017-04-17T09:01:10.501Z,2.90
2017-04-17T09:02:08.014Z,3.50
2017-04-17T09:03:05.410Z,2.98
2017-04-17T09:04:05.201Z,2.38
2017-04-17T09:05:04.773Z,3.05
2017-04-17T09:06:05.040Z,3.00
2017-04-17T09:07:02.557Z,3.73
2017-04-17T09:07:59.957Z,2.77
2017-04-17T09:08:57.363Z,3.32
2017-04-17T09:09:55.479Z,3.15
2017-04-17T09:10:52.991Z,3.40
2017-04-17T09:11:52.894Z,2.93
2017-04-17T09:12:50.412Z,2.17
2017-04-17T09:13:47.759Z,3.30
2017-04-17T09:14:45.123Z,2.78
2017-04-17T09:15:42.510Z,2.58
2017-04-17T09:16:39.919Z,2.88
2017-04-17T09:17:38.026Z,2.95
2017-04-17T09:18:36.159Z,2.40
2017-04-17T09:19:33.609Z,2.13
2017-04-17T09:20:31.023Z,2.67
2017-04-17T09:21:28.433Z,1.97
2017-04-17T09:22:25.818Z,2.87
2017-04-17T09:23:24.000Z,2.87
2017-04-17T09:24:21.334Z,2.60
2017-04-17T09:25:19.385Z,3.25
2017-04-17T09:26:17.491Z,2.25
2017-04-17T09:27:16.298Z,2.93
2017-04-17T09:28:16.036Z,2.23
2017-04-17T09:29:15.057Z,2.63
2017-04-17T09:30:15.738Z,2.38
2017-04-17T09:31:14.648Z,2.48
2017-04-17T09:32:13.740Z,2.67
2017-04-17T09:33:12.777Z,2.50
2017-04-17T09:34:12.525Z,1.25
2017-04-17T09:35:11.584Z,1.18
2017-04-17T09:36:11.294Z,1.55
2017-04-17T09:37:10.487Z,1.43
2017-04-17T09:38:09.567Z,1.35
2017-04-17T09:39:08.891Z,1.12
2017-04-17T09:40:09.174Z,1.48
2017-04-17T09:41:09.952Z,1.90
2017-04-17T09:42:09.881Z,1.87
2017-04-17T09:43:08.811Z,1.50
2017-04-17T09:44:08.809Z,1.72
2017-04-17T09:45:08.045Z,1.88
2017-04-17T09:46:07.830Z,1.52
2017-04-17T09:47:07.909Z,1.55
2017-04-17T09:48:07.850Z,1.65
2017-04-17T09:49:07.993Z,1.78
2017-04-17T09:50:07.517Z,1.88
2017-04-17T09:51:06.954Z,2.45
2017-04-17T09:52:05.489Z,2.57
2017-04-17T09:53:05.344Z,2.27
2017-04-17T09:54:04.350Z,1.68
2017-04-17T09:55:03.485Z,1.73
2017-04-17T09:56:03.400Z,2.07
2017-04-17T09:57:03.194Z,1.73
2017-04-17T09:58:03.619Z,1.80
2017-04-17T09:59:03.322Z,1.63
2017-04-17T10:00:04.349Z,1.85
2017-04-17T10:01:04.241Z,1.40
2017-04-17T10:02:03.282Z,1.50
2017-04-17T10:12:41.395Z,1.50
2017-04-17T10:13:39.417Z,1.93
2017-04-17T10:14:36.821Z,1.82
2017-04-17T10:15:34.176Z,1.63
2017-04-17T10:16:32.182Z,1.78
2017-04-17T10:17:30.916Z,1.50
2017-04-17T10:18:28.346Z,1.33
2017-04-17T10:19:26.121Z,1.65
2017-04-17T10:20:23.494Z,1.38
2017-04-17T10:21:20.867Z,1.40
2017-04-17T10:22:18.222Z,1.50
2017-04-17T10:23:15.598Z,1.77
2017-04-17T10:24:13.076Z,1.75
2017-04-17T10:25:10.454Z,1.32
2017-04-17T10:26:08.678Z,1.12
2017-04-17T10:27:06.110Z,1.18
2017-04-17T10:28:04.415Z,1.68
2017-04-17T10:29:02.600Z,1.25
2017-04-17T10:30:00.729Z,1.27
2017-04-17T10:30:58.112Z,1.50
2017-04-17T10:31:55.470Z,1.40
2017-04-17T10:32:52.902Z,1.37
2017-04-17T10:33:51.194Z,1.13
2017-04-17T10:34:49.422Z,1.55
2017-04-17T10:35:46.810Z,1.57
2017-04-17T10:36:44.165Z,1.50
2017-04-17T10:37:42.262Z,1.68
2017-04-17T10:38:40.368Z,1.48
2017-04-17T10:39:38.504Z,1.48
2017-04-17T10:40:35.980Z,1.20
2017-04-17T10:41:34.087Z,1.28
2017-04-17T10:42:31.954Z,1.70
2017-04-17T10:43:29.322Z,1.10
2017-04-17T10:44:26.711Z,1.30
2017-04-17T10:45:25.800Z,1.12
2017-04-17T10:46:23.317Z,0.98
2017-04-17T10:47:20.924Z,1.23
2017-04-17T10:48:19.059Z,1.35
2017-04-17T10:49:17.209Z,1.22
2017-04-17T10:50:16.468Z,1.37
2017-04-17T10:51:15.975Z,1.13
2017-04-17T10:52:13.330Z,1.32
2017-04-17T10:53:10.702Z,1.42
2017-04-17T10:54:08.201Z,1.33
2017-04-17T10:55:06.304Z,1.40
2017-04-17T10:56:03.882Z,1.30
2017-04-17T10:57:01.223Z,1.68
2017-04-17T10:57:59.343Z,1.43
2017-04-17T10:58:57.454Z,1.33
2017-04-17T10:59:55.650Z,1.18
2017-04-17T11:00:53.068Z,1.63
2017-04-17T11:01:50.390Z,1.38
2017-04-17T11:02:48.617Z,1.67
2017-04-17T11:03:46.091Z,1.37
2017-04-17T11:04:43.450Z,1.40
2017-04-17T11:05:41.638Z,1.27
2017-04-17T11:06:39.011Z,1.28
2017-04-17T11:07:36.382Z,1.15
2017-04-17T11:08:33.747Z,1.33
2017-04-17T11:09:32.611Z,1.23
2017-04-17T11:10:29.955Z,1.25
2017-04-17T11:11:27.394Z,1.20
2017-04-17T11:12:24.780Z,1.55
2017-04-17T11:13:22.776Z,1.93
2017-04-17T11:14:20.274Z,1.77
2017-04-17T11:15:18.371Z,1.47
2017-04-17T11:16:15.731Z,1.45
2017-04-17T11:17:13.180Z,1.78
2017-04-17T11:18:10.715Z,1.32
2017-04-17T11:19:08.075Z,1.48
2017-04-17T11:20:05.428Z,1.23
2017-04-17T11:21:03.594Z,1.30
2017-04-17T11:22:01.080Z,1.27
2017-04-17T11:22:58.547Z,1.30
2017-04-17T11:23:55.916Z,1.38
2017-04-17T11:24:53.278Z,1.12
2017-04-17T11:25:50.801Z,1.32
2017-04-17T11:26:48.197Z,1.27
2017-04-17T11:27:47.079Z,1.10
2017-04-17T11:28:44.438Z,1.28
2017-04-17T11:29:42.562Z,1.32
2017-04-17T11:30:40.024Z,1.28
2017-04-17T11:31:37.391Z,1.07
2017-04-17T11:32:36.570Z,1.07
2017-04-17T11:33:34.125Z,1.27
2017-04-17T11:34:31.484Z,1.10
2017-04-17T11:35:28.882Z,1.32
2017-04-17T11:36:26.307Z,2.45
2017-04-17T11:37:23.695Z,1.45
2017-04-17T11:38:22.878Z,1.43
2017-04-17T11:39:21.853Z,1.38
2017-04-17T11:40:19.306Z,1.48
2017-04-17T11:41:17.006Z,1.40
2017-04-17T11:42:14.491Z,1.63
2017-04-17T11:43:13.349Z,1.48
2017-04-17T11:44:12.148Z,1.43
2017-04-17T11:45:09.516Z,1.10
2017-04-17T11:46:08.134Z,1.30
2017-04-17T11:47:05.490Z,1.53
2017-04-17T11:48:03.183Z,1.60
2017-04-17T11:49:00.693Z,1.33
2017-04-17T11:49:58.244Z,1.28
2017-04-17T11:50:55.727Z,1.72
2017-04-17T11:51:53.317Z,2.22
2017-04-17T11:52:51.981Z,1.32
2017-04-17T11:53:49.402Z,1.70
2017-04-17T11:54:48.135Z,1.70
2017-04-17T11:55:45.697Z,1.50
2017-04-17T11:56:43.093Z,1.42
2017-04-17T11:57:41.866Z,1.42
2017-04-17T11:58:39.293Z,1.75
2017-04-17T11:59:37.739Z,1.70
2017-04-17T12:00:35.147Z,1.90
2017-04-17T12:01:32.530Z,2.10
2017-04-17T12:02:31.272Z,1.90
2017-04-17T12:03:28.685Z,1.43
2017-04-17T12:04:26.337Z,2.02
2017-04-17T12:05:23.788Z,1.45
2017-04-17T12:06:21.153Z,1.25
2017-04-17T12:07:18.554Z,1.50
2017-04-17T12:08:16.025Z,2.52
2017-04-17T12:09:13.404Z,1.35
2017-04-17T12:10:12.822Z,1.57
2017-04-17T12:11:13.111Z,1.42
2017-04-17T12:12:15.068Z,2.12
2017-04-17T12:13:18.411Z,1.85
2017-04-17T12:14:17.608Z,1.32
2017-04-17T12:15:21.753Z,1.52
2017-04-17T12:16:19.550Z,1.55
2017-04-17T12:17:18.252Z,1.73
2017-04-17T12:18:16.554Z,1.92
2017-04-17T12:19:13.951Z,1.80
2017-04-17T12:20:12.046Z,1.43
2017-04-17T12:21:10.016Z,1.65
2017-04-17T12:22:08.219Z,1.25
2017-04-17T12:23:05.602Z,1.62
2017-04-17T12:24:03.138Z,1.92
2017-04-17T12:25:00.503Z,1.88
2017-04-17T12:25:58.038Z,1.68
2017-04-17T12:26:55.763Z,1.38
2017-04-17T12:27:54.050Z,1.55
2017-04-17T12:28:51.430Z,1.40
2017-04-17T12:29:48.907Z,1.80
2017-04-17T12:30:46.646Z,1.57
2017-04-17T12:31:45.023Z,2.00
2017-04-17T12:32:43.478Z,1.35
2017-04-17T12:33:42.263Z,1.48
2017-04-17T12:34:40.817Z,1.27
2017-04-17T12:35:38.633Z,1.17
2017-04-17T12:36:36.593Z,1.58
2017-04-17T12:37:34.513Z,1.45
2017-04-17T12:38:33.027Z,1.73
2017-04-17T12:39:30.850Z,1.37
2017-04-17T12:40:28.547Z,1.50
2017-04-17T12:41:26.341Z,1.10
2017-04-17T12:42:24.721Z,1.50
2017-04-17T12:43:23.125Z,2.72
2017-04-17T12:44:20.780Z,1.23
2017-04-17T12:45:19.205Z,1.28
2017-04-17T12:46:16.837Z,1.30
2017-04-17T12:47:14.590Z,1.43
2017-04-17T12:48:13.346Z,1.53
2017-04-17T12:49:11.356Z,0.97
2017-04-17T12:50:10.145Z,1.08
2017-04-17T12:51:08.818Z,1.15
2017-04-17T12:52:06.604Z,1.00
2017-04-17T12:53:04.530Z,1.40
2017-04-17T12:54:03.022Z,1.60
2017-04-17T12:55:01.008Z,1.50
2017-04-17T12:55:58.857Z,1.73
2017-04-17T12:56:58.007Z,1.30
2017-04-17T12:57:55.905Z,1.77
2017-04-17T12:58:53.752Z,1.37
2017-04-17T12:59:52.152Z,1.30
2017-04-17T13:00:50.167Z,1.25
2017-04-17T13:01:48.830Z,1.23
2017-04-17T13:02:47.362Z,1.18
2017-04-17T13:03:45.169Z,1.18
2017-04-17T13:04:42.985Z,1.12
2017-04-17T13:05:40.673Z,1.65
2017-04-17T13:06:38.202Z,1.15
2017-04-17T13:07:35.820Z,1.57
2017-04-17T13:08:34.212Z,1.10
2017-04-17T13:09:31.837Z,1.15
2017-04-17T13:10:29.451Z,1.10
2017-04-17T13:11:27.672Z,1.55
2017-04-17T13:12:25.160Z,1.20
2017-04-17T13:13:23.687Z,1.07
2017-04-17T13:14:21.398Z,0.90
2017-04-17T13:15:19.230Z,1.17
2017-04-17T13:16:16.753Z,1.03
2017-04-17T13:17:14.130Z,1.28
2017-04-17T13:18:11.633Z,0.83
2017-04-17T13:19:09.424Z,1.40
2017-04-17T13:20:07.335Z,1.25
2017-04-17T13:21:04.805Z,1.45
2017-04-17T13:22:02.793Z,1.20
2017-04-17T13:23:00.210Z,1.67
2017-04-17T13:23:57.570Z,1.80
2017-04-17T13:24:55.874Z,1.47
2017-04-17T13:25:54.101Z,1.35
2017-04-17T13:26:51.495Z,1.60
2017-04-17T13:27:49.611Z,1.40
2017-04-17T13:28:47.717Z,1.57